Time;durP1;ratioP1;P1;durP2;ratioP2;P2;SDS_P1;SDS_P2;PMS_P1;PMS_P2;Temp;Humidity;BMP_temperature;BMP_pressure;BME280_temperature;BME280_humidity;BME280_pressure;Samples;Min_cycle;Max_cycle;Signal;HPM_P1;HPM_P2
2024/02/03 00:02:00;;;;;;;43.08;24.63;;;;;;;;;;5087133;28;20027;-61
2024/02/03 00:04:30;;;;;;;48.38;23.33;;;;;;;;;;5087044;28;20279;-60
2024/02/03 00:06:56;;;;;;;35.63;23.50;;;;;;;;;;5086491;28;20032;-61
2024/02/03 00:09:23;;;;;;;37.92;23.75;;;;;;;;;;5087057;28;20089;-57
2024/02/03 00:11:49;;;;;;;35.50;22.13;;;;;;;;;;5086984;28;20024;-61
2024/02/03 00:14:16;;;;;;;35.10;22.92;;;;;;;;;;5086697;28;20118;-59
2024/02/03 00:16:43;;;;;;;34.70;22.63;;;;;;;;;;5086828;28;20021;-59
2024/02/03 00:19:09;;;;;;;30.73;22.02;;;;;;;;;;5086789;28;20012;-60
2024/02/03 00:21:36;;;;;;;33.88;21.90;;;;;;;;;;5087113;28;20332;-62
2024/02/03 00:24:03;;;;;;;33.95;22.35;;;;;;;;;;5086721;28;20035;-61
2024/02/03 00:26:29;;;;;;;36.97;23.15;;;;;;;;;;5086652;28;20093;-59
2024/02/03 00:28:56;;;;;;;32.50;21.85;;;;;;;;;;5086568;28;20027;-61
2024/02/03 00:31:22;;;;;;;35.47;22.92;;;;;;;;;;5086981;28;20381;-61
2024/02/03 00:33:49;;;;;;;32.78;21.58;;;;;;;;;;5086546;28;20017;-60
2024/02/03 00:36:25;;;;;;;32.50;21.17;;;;;;;;;;5086978;28;20059;-64
2024/02/03 00:38:52;;;;;;;31.92;21.90;;;;;;;;;;5086496;28;20070;-62
2024/02/03 00:41:19;;;;;;;35.65;22.10;;;;;;;;;;5086876;28;20066;-60
2024/02/03 00:43:45;;;;;;;30.75;21.25;;;;;;;;;;5086071;28;20039;-61
2024/02/03 00:46:12;;;;;;;30.75;21.95;;;;;;;;;;5086645;28;20056;-61
2024/02/03 00:48:39;;;;;;;32.88;21.08;;;;;;;;;;5086382;28;20023;-60
2024/02/03 00:51:09;;;;;;;32.45;21.33;;;;;;;;;;5085933;28;20032;-60
2024/02/03 00:53:41;;;;;;;34.22;22.23;;;;;;;;;;5086296;28;20204;-63
2024/02/03 00:56:08;;;;;;;32.67;22.10;;;;;;;;;;5086519;28;20030;-59
2024/02/03 00:58:35;;;;;;;34.05;23.70;;;;;;;;;;5085891;28;20069;-58
2024/02/03 01:01:01;;;;;;;33.00;21.90;;;;;;;;;;5086410;28;20051;-61
2024/02/03 01:03:28;;;;;;;31.60;22.00;;;;;;;;;;5086038;28;20066;-60
2024/02/03 01:05:54;;;;;;;32.70;21.52;;;;;;;;;;5085220;28;20083;-61
2024/02/03 01:08:21;;;;;;;33.25;21.80;;;;;;;;;;5085575;28;20027;-60
2024/02/03 01:10:48;;;;;;;30.60;21.42;;;;;;;;;;5086180;28;20024;-60
2024/02/03 01:13:14;;;;;;;29.63;20.77;;;;;;;;;;5085532;28;20083;-61
2024/02/03 01:15:41;;;;;;;29.13;20.10;;;;;;;;;;5085705;28;20028;-63
2024/02/03 01:18:08;;;;;;;27.05;19.33;;;;;;;;;;5085723;28;20081;-59
2024/02/03 01:20:35;;;;;;;29.25;20.33;;;;;;;;;;5085796;28;20055;-61
2024/02/03 01:23:01;;;;;;;32.88;20.55;;;;;;;;;;5085577;28;20088;-61
2024/02/03 01:25:28;;;;;;;28.10;19.85;;;;;;;;;;5085719;28;20216;-57
2024/02/03 01:27:54;;;;;;;24.95;19.77;;;;;;;;;;5085414;28;20016;-62
2024/02/03 01:30:21;;;;;;;31.58;19.73;;;;;;;;;;5085667;28;20029;-60
2024/02/03 01:32:48;;;;;;;29.60;19.98;;;;;;;;;;5085337;28;20039;-57
2024/02/03 01:35:15;;;;;;;25.40;20.00;;;;;;;;;;5085470;28;20047;-62
2024/02/03 01:37:41;;;;;;;28.58;19.15;;;;;;;;;;5085221;28;20024;-61
2024/02/03 01:40:08;;;;;;;29.52;19.80;;;;;;;;;;5085371;28;20251;-62
2024/02/03 01:42:35;;;;;;;33.38;20.30;;;;;;;;;;5085238;28;20083;-60
2024/02/03 01:45:02;;;;;;;26.02;20.50;;;;;;;;;;5084913;28;20255;-62
2024/02/03 01:47:28;;;;;;;30.10;20.02;;;;;;;;;;5085081;28;20317;-61
2024/02/03 01:49:56;;;;;;;32.28;19.95;;;;;;;;;;5085092;28;20252;-58
2024/02/03 01:52:23;;;;;;;27.08;19.45;;;;;;;;;;5084883;28;20016;-63
2024/02/03 01:54:50;;;;;;;26.25;19.33;;;;;;;;;;5085094;28;20028;-61
2024/02/03 01:57:19;;;;;;;28.00;19.75;;;;;;;;;;5084944;28;20089;-59
2024/02/03 01:59:45;;;;;;;28.52;20.13;;;;;;;;;;5084810;28;20217;-60
2024/02/03 02:02:12;;;;;;;27.95;19.48;;;;;;;;;;5084822;28;20021;-59
2024/02/03 02:04:38;;;;;;;27.65;20.83;;;;;;;;;;5084793;28;20032;-60
2024/02/03 02:07:05;;;;;;;29.60;19.75;;;;;;;;;;5084555;28;20017;-60
2024/02/03 02:09:32;;;;;;;30.08;18.80;;;;;;;;;;5084815;28;20028;-62
2024/02/03 02:11:58;;;;;;;30.17;19.77;;;;;;;;;;5084651;28;20308;-64
2024/02/03 02:14:28;;;;;;;25.27;18.63;;;;;;;;;;5084346;28;20016;-61
2024/02/03 02:16:57;;;;;;;26.30;19.95;;;;;;;;;;5084481;28;20009;-59
2024/02/03 02:19:24;;;;;;;30.05;20.05;;;;;;;;;;5084476;28;20025;-59
2024/02/03 02:21:50;;;;;;;32.25;19.65;;;;;;;;;;5084320;28;20019;-59
2024/02/03 02:24:17;;;;;;;30.75;20.40;;;;;;;;;;5084408;28;20047;-59
2024/02/03 02:26:44;;;;;;;32.15;20.80;;;;;;;;;;5084282;28;20027;-61
2024/02/03 02:29:10;;;;;;;32.28;20.83;;;;;;;;;;5084139;28;20017;-61
2024/02/03 02:31:37;;;;;;;31.10;21.40;;;;;;;;;;5084785;28;20024;-61
2024/02/03 02:34:03;;;;;;;30.40;20.55;;;;;;;;;;5084528;28;20205;-65
2024/02/03 02:36:30;;;;;;;32.53;20.38;;;;;;;;;;5084520;28;20028;-60
2024/02/03 02:38:56;;;;;;;31.75;21.10;;;;;;;;;;5084137;28;20068;-59
2024/02/03 02:41:23;;;;;;;25.17;20.55;;;;;;;;;;5084605;28;20040;-60
2024/02/03 02:43:49;;;;;;;29.40;22.40;;;;;;;;;;5083831;28;20051;-62
2024/02/03 02:46:21;;;;;;;38.90;27.70;;;;;;;;;;5081161;28;20025;-64
2024/02/03 02:48:50;;;;;;;31.80;23.80;;;;;;;;;;5083986;28;20111;-61
2024/02/03 02:51:17;;;;;;;30.77;22.30;;;;;;;;;;5075305;28;20032;-60
2024/02/03 02:53:44;;;;;;;31.75;21.52;;;;;;;;;;5083074;28;20024;-60
2024/02/03 02:56:10;;;;;;;35.60;21.17;;;;;;;;;;5083638;28;20025;-56
2024/02/03 02:58:37;;;;;;;33.70;21.38;;;;;;;;;;5083911;28;20083;-61
2024/02/03 03:01:03;;;;;;;30.55;21.45;;;;;;;;;;5082593;28;20024;-60
2024/02/03 03:03:30;;;;;;;37.88;21.80;;;;;;;;;;5083569;28;20048;-58
2024/02/03 03:05:59;;;;;;;27.67;20.10;;;;;;;;;;5076294;28;20239;-64
2024/02/03 03:08:26;;;;;;;33.17;20.88;;;;;;;;;;5075510;28;20020;-58
2024/02/03 03:10:53;;;;;;;33.10;20.98;;;;;;;;;;5076249;28;20013;-58
2024/02/03 03:13:19;;;;;;;28.23;19.90;;;;;;;;;;5075163;28;20024;-61
2024/02/03 03:15:46;;;;;;;26.42;19.58;;;;;;;;;;5080995;28;20026;-60
2024/02/03 03:18:12;;;;;;;32.60;21.02;;;;;;;;;;5082038;28;20066;-56
2024/02/03 03:20:41;;;;;;;27.42;18.88;;;;;;;;;;5080212;28;20063;-60
2024/02/03 03:23:08;;;;;;;30.33;20.02;;;;;;;;;;5078193;28;20212;-54
2024/02/03 03:25:37;;;;;;;32.13;19.88;;;;;;;;;;5080305;28;20024;-53
2024/02/03 03:28:07;;;;;;;31.45;19.90;;;;;;;;;;5082954;28;20025;-55
2024/02/03 03:30:33;;;;;;;30.75;18.83;;;;;;;;;;5085661;28;20035;-55
2024/02/03 03:33:00;;;;;;;27.42;20.27;;;;;;;;;;5084809;28;20012;-55
2024/02/03 03:35:26;;;;;;;27.98;18.88;;;;;;;;;;5084346;28;20024;-57
2024/02/03 03:37:56;;;;;;;27.05;18.63;;;;;;;;;;5087262;28;20024;-54
2024/02/03 03:40:23;;;;;;;28.85;18.33;;;;;;;;;;5085417;28;20016;-56
2024/02/03 03:42:49;;;;;;;25.92;18.33;;;;;;;;;;5086462;28;20087;-55
2024/02/03 03:45:17;;;;;;;25.13;18.38;;;;;;;;;;5086882;28;20041;-57
2024/02/03 03:47:43;;;;;;;27.77;17.60;;;;;;;;;;5086885;28;20024;-56
2024/02/03 03:50:10;;;;;;;22.25;17.23;;;;;;;;;;5086705;28;20023;-53
2024/02/03 03:52:37;;;;;;;27.42;17.13;;;;;;;;;;5084242;28;20028;-62
2024/02/03 03:55:03;;;;;;;26.05;17.77;;;;;;;;;;5084154;28;20012;-58
2024/02/03 03:57:30;;;;;;;25.83;16.55;;;;;;;;;;5086510;28;20029;-57
2024/02/03 03:59:57;;;;;;;25.15;17.13;;;;;;;;;;5086858;28;20058;-53
2024/02/03 04:02:23;;;;;;;26.88;16.73;;;;;;;;;;5086593;28;20025;-59
2024/02/03 04:04:50;;;;;;;26.58;17.02;;;;;;;;;;5085066;28;20023;-63
2024/02/03 04:07:17;;;;;;;26.10;17.13;;;;;;;;;;5086473;28;20331;-61
2024/02/03 04:09:48;;;;;;;28.73;17.58;;;;;;;;;;5086544;28;20255;-54
2024/02/03 04:12:18;;;;;;;27.92;17.67;;;;;;;;;;5078898;28;20017;-56
2024/02/03 04:14:46;;;;;;;25.50;17.15;;;;;;;;;;5084175;28;20016;-58
2024/02/03 04:17:13;;;;;;;27.73;18.42;;;;;;;;;;5086201;28;20182;-58
2024/02/03 04:19:39;;;;;;;28.52;18.02;;;;;;;;;;5086330;28;20017;-61
2024/02/03 04:22:08;;;;;;;23.52;17.40;;;;;;;;;;5086512;28;20026;-61
2024/02/03 04:24:34;;;;;;;24.90;17.65;;;;;;;;;;5083338;28;20040;-63
2024/02/03 04:27:01;;;;;;;25.40;18.33;;;;;;;;;;5085966;28;20024;-60
2024/02/03 04:29:27;;;;;;;24.13;17.17;;;;;;;;;;5086051;28;20308;-62
2024/02/03 04:31:54;;;;;;;27.23;17.92;;;;;;;;;;5082154;28;20146;-61
2024/02/03 04:34:21;;;;;;;26.08;17.23;;;;;;;;;;5085883;28;20076;-60
2024/02/03 04:36:47;;;;;;;28.25;17.05;;;;;;;;;;5085975;28;20082;-59
2024/02/03 04:39:14;;;;;;;23.77;17.60;;;;;;;;;;5083086;28;20201;-64
2024/02/03 04:41:41;;;;;;;24.63;16.55;;;;;;;;;;5084746;28;20038;-61
2024/02/03 04:44:07;;;;;;;27.90;17.75;;;;;;;;;;5085817;28;20064;-60
2024/02/03 04:46:34;;;;;;;24.58;18.00;;;;;;;;;;5086221;28;20024;-62
2024/02/03 04:49:01;;;;;;;23.70;17.05;;;;;;;;;;5086054;28;20021;-61
2024/02/03 04:51:29;;;;;;;24.35;17.02;;;;;;;;;;5086099;28;20285;-57
2024/02/03 04:53:55;;;;;;;24.27;17.38;;;;;;;;;;5083079;28;20070;-58
2024/02/03 04:56:22;;;;;;;24.42;17.25;;;;;;;;;;5085986;28;20066;-59
2024/02/03 04:58:48;;;;;;;27.38;16.90;;;;;;;;;;5083083;28;20216;-57
2024/02/03 05:01:15;;;;;;;27.75;17.55;;;;;;;;;;5082351;28;20017;-55
2024/02/03 05:03:42;;;;;;;27.85;17.35;;;;;;;;;;5085411;28;20078;-61
2024/02/03 05:06:08;;;;;;;29.33;17.00;;;;;;;;;;5085693;28;20039;-59
2024/02/03 05:08:35;;;;;;;23.65;16.88;;;;;;;;;;5082744;28;20016;-61
2024/02/03 05:11:01;;;;;;;25.40;17.33;;;;;;;;;;5085684;28;20296;-62
2024/02/03 05:13:28;;;;;;;25.63;17.23;;;;;;;;;;5085311;28;20051;-58
2024/02/03 05:15:55;;;;;;;22.02;16.90;;;;;;;;;;5082422;28;20186;-58
2024/02/03 05:18:22;;;;;;;22.83;17.17;;;;;;;;;;5085178;28;20016;-61
2024/02/03 05:20:49;;;;;;;26.17;18.15;;;;;;;;;;5085309;28;20028;-58
2024/02/03 05:23:16;;;;;;;27.50;18.25;;;;;;;;;;5082451;28;20213;-60
2024/02/03 05:25:42;;;;;;;24.73;16.85;;;;;;;;;;5085225;28;20021;-55
2024/02/03 05:28:09;;;;;;;24.90;17.63;;;;;;;;;;5084785;28;20084;-59
2024/02/03 05:30:35;;;;;;;24.83;17.48;;;;;;;;;;5082511;28;20020;-61
2024/02/03 05:33:02;;;;;;;25.65;17.60;;;;;;;;;;5084912;28;20307;-60
2024/02/03 05:35:29;;;;;;;26.10;17.05;;;;;;;;;;5084968;28;20038;-58
2024/02/03 05:37:55;;;;;;;24.23;16.70;;;;;;;;;;5082200;28;20028;-59
2024/02/03 05:40:22;;;;;;;24.65;17.63;;;;;;;;;;5085050;28;20382;-61
2024/02/03 05:42:49;;;;;;;25.48;17.73;;;;;;;;;;5084562;28;20024;-61
2024/02/03 05:45:17;;;;;;;22.10;17.92;;;;;;;;;;5081974;28;20348;-61
2024/02/03 05:47:43;;;;;;;26.75;16.52;;;;;;;;;;5084618;28;20020;-56
2024/02/03 05:50:10;;;;;;;24.92;16.88;;;;;;;;;;5084473;28;20020;-58
2024/02/03 05:52:37;;;;;;;27.70;17.65;;;;;;;;;;5084176;28;20028;-58
2024/02/03 05:55:03;;;;;;;23.50;17.67;;;;;;;;;;5084472;28;20047;-63
2024/02/03 05:57:30;;;;;;;23.27;16.45;;;;;;;;;;5084211;28;20454;-63
2024/02/03 05:59:56;;;;;;;24.95;16.88;;;;;;;;;;5082482;28;20300;-62
2024/02/03 06:02:23;;;;;;;26.77;17.42;;;;;;;;;;5084212;28;20094;-54
2024/02/03 06:04:50;;;;;;;22.73;17.38;;;;;;;;;;5082097;28;20035;-58
2024/02/03 06:07:16;;;;;;;24.48;16.65;;;;;;;;;;5084768;28;20321;-57
2024/02/03 06:09:43;;;;;;;23.92;16.65;;;;;;;;;;5084837;28;20342;-57
2024/02/03 06:12:10;;;;;;;27.55;16.77;;;;;;;;;;5084560;28;20024;-56
2024/02/03 06:14:40;;;;;;;26.60;16.60;;;;;;;;;;5084679;28;20017;-58
2024/02/03 06:17:07;;;;;;;30.23;18.23;;;;;;;;;;5084593;28;20260;-58
2024/02/03 06:19:33;;;;;;;30.48;17.67;;;;;;;;;;5084424;28;20078;-58
2024/02/03 06:22:00;;;;;;;28.15;17.67;;;;;;;;;;5084459;28;20091;-59
2024/02/03 06:24:26;;;;;;;22.77;16.50;;;;;;;;;;5081098;28;20019;-57
2024/02/03 06:26:53;;;;;;;27.70;16.70;;;;;;;;;;5084095;28;20025;-55
2024/02/03 06:29:19;;;;;;;26.55;16.60;;;;;;;;;;5084440;28;20071;-56
2024/02/03 06:31:46;;;;;;;26.17;17.25;;;;;;;;;;5084396;28;20021;-52
2024/02/03 06:34:13;;;;;;;28.27;17.23;;;;;;;;;;5084162;28;20131;-59
2024/02/03 06:36:40;;;;;;;28.17;16.27;;;;;;;;;;5073582;28;20371;-58
2024/02/03 06:39:08;;;;;;;25.48;16.40;;;;;;;;;;5078143;28;20020;-56
2024/02/03 06:41:34;;;;;;;25.30;16.20;;;;;;;;;;5080480;28;20028;-59
2024/02/03 06:44:01;;;;;;;23.08;15.82;;;;;;;;;;5064083;28;20052;-53
2024/02/03 06:46:27;;;;;;;23.15;15.82;;;;;;;;;;5083339;28;20020;-60
2024/02/03 06:48:54;;;;;;;22.52;15.75;;;;;;;;;;5065617;28;20032;-57
2024/02/03 06:51:21;;;;;;;26.08;16.08;;;;;;;;;;5064365;28;20028;-58
2024/02/03 06:53:47;;;;;;;25.38;16.40;;;;;;;;;;5064125;28;20255;-56
2024/02/03 06:56:14;;;;;;;24.23;16.05;;;;;;;;;;5064377;28;20308;-58
2024/02/03 06:58:40;;;;;;;22.48;15.57;;;;;;;;;;5063763;28;20037;-60
2024/02/03 07:01:07;;;;;;;24.77;16.00;;;;;;;;;;5065900;28;20045;-59
2024/02/03 07:03:34;;;;;;;26.15;16.08;;;;;;;;;;5083898;28;20028;-57
2024/02/03 07:06:00;;;;;;;24.65;15.43;;;;;;;;;;5083444;28;20331;-56
2024/02/03 07:08:27;;;;;;;28.13;16.50;;;;;;;;;;5084110;28;20255;-58
2024/02/03 07:10:53;;;;;;;27.60;17.20;;;;;;;;;;5084331;28;20296;-60
2024/02/03 07:13:22;;;;;;;25.17;16.70;;;;;;;;;;5083722;28;20251;-55
2024/02/03 07:15:49;;;;;;;25.30;16.33;;;;;;;;;;5084119;28;20028;-60
2024/02/03 07:18:15;;;;;;;26.63;16.75;;;;;;;;;;5084268;28;20362;-56
2024/02/03 07:20:42;;;;;;;25.58;16.67;;;;;;;;;;5084345;28;20020;-57
2024/02/03 07:23:08;;;;;;;24.65;16.67;;;;;;;;;;5083723;28;20126;-56
2024/02/03 07:25:35;;;;;;;28.25;17.42;;;;;;;;;;5084001;28;20031;-57
2024/02/03 07:28:02;;;;;;;26.45;16.33;;;;;;;;;;5083616;28;20067;-60
2024/02/03 07:30:29;;;;;;;29.60;16.98;;;;;;;;;;5083904;28;20043;-55
2024/02/03 07:32:55;;;;;;;26.77;16.48;;;;;;;;;;5083611;28;20027;-56
2024/02/03 07:35:22;;;;;;;25.67;16.55;;;;;;;;;;5082037;28;20028;-57
2024/02/03 07:37:49;;;;;;;29.02;17.20;;;;;;;;;;5072821;28;20043;-59
2024/02/03 07:40:15;;;;;;;26.15;16.30;;;;;;;;;;5083852;28;20317;-56
2024/02/03 07:42:42;;;;;;;23.75;15.43;;;;;;;;;;5083499;28;20255;-55
2024/02/03 07:45:11;;;;;;;27.70;16.05;;;;;;;;;;5083465;28;20071;-61
2024/02/03 07:47:37;;;;;;;27.83;16.85;;;;;;;;;;5083632;28;20303;-64
2024/02/03 07:50:04;;;;;;;29.85;16.88;;;;;;;;;;5083447;28;20193;-60
2024/02/03 07:52:30;;;;;;;22.83;16.02;;;;;;;;;;5083622;28;20383;-58
2024/02/03 07:54:57;;;;;;;26.70;16.23;;;;;;;;;;5083775;28;20269;-61
2024/02/03 07:57:24;;;;;;;23.50;16.13;;;;;;;;;;5083326;28;20028;-57
2024/02/03 07:59:50;;;;;;;23.90;15.85;;;;;;;;;;5083654;28;20074;-58
2024/02/03 08:02:17;;;;;;;25.40;15.75;;;;;;;;;;5083508;28;20209;-55
2024/02/03 08:04:43;;;;;;;25.42;16.05;;;;;;;;;;5083266;28;20024;-60
2024/02/03 08:07:10;;;;;;;23.45;16.65;;;;;;;;;;5083333;28;20036;-54
2024/02/03 08:09:37;;;;;;;26.48;16.90;;;;;;;;;;5082465;28;20062;-57
2024/02/03 08:12:04;;;;;;;26.33;16.58;;;;;;;;;;5063213;28;20028;-62
2024/02/03 08:14:31;;;;;;;26.65;17.58;;;;;;;;;;5063134;28;20032;-62
2024/02/03 08:16:58;;;;;;;24.88;17.20;;;;;;;;;;5065832;28;20021;-62
2024/02/03 08:19:24;;;;;;;22.67;17.02;;;;;;;;;;5067098;28;20021;-60
2024/02/03 08:21:51;;;;;;;27.30;16.83;;;;;;;;;;5066776;28;20025;-58
2024/02/03 08:24:17;;;;;;;29.73;17.25;;;;;;;;;;5066817;28;20017;-62
2024/02/03 08:26:44;;;;;;;27.55;17.70;;;;;;;;;;5066735;28;20067;-61
2024/02/03 08:29:11;;;;;;;24.27;16.60;;;;;;;;;;5066531;28;20015;-63
2024/02/03 08:31:38;;;;;;;26.75;17.05;;;;;;;;;;5067183;28;20029;-58
2024/02/03 08:34:04;;;;;;;28.17;17.42;;;;;;;;;;5066543;28;20021;-59
2024/02/03 08:36:31;;;;;;;25.17;17.45;;;;;;;;;;5066935;28;20036;-55
2024/02/03 08:38:57;;;;;;;26.08;17.20;;;;;;;;;;5066616;28;20372;-57
2024/02/03 08:41:24;;;;;;;26.20;17.15;;;;;;;;;;5066955;28;20297;-58
2024/02/03 08:43:51;;;;;;;23.70;16.92;;;;;;;;;;5066113;28;20076;-61
2024/02/03 08:46:18;;;;;;;25.13;17.30;;;;;;;;;;5066790;28;20029;-63
2024/02/03 08:48:45;;;;;;;28.45;17.20;;;;;;;;;;5066364;28;20025;-56
2024/02/03 08:51:11;;;;;;;22.70;17.75;;;;;;;;;;5066490;28;20066;-61
2024/02/03 08:53:38;;;;;;;22.95;16.17;;;;;;;;;;5066363;28;20017;-58
2024/02/03 08:56:07;;;;;;;25.80;16.98;;;;;;;;;;5066603;28;20042;-58
2024/02/03 08:58:33;;;;;;;23.70;16.60;;;;;;;;;;5065952;28;20032;-53
2024/02/03 09:01:00;;;;;;;25.17;16.70;;;;;;;;;;5066570;28;20070;-55
2024/02/03 09:03:27;;;;;;;29.08;17.17;;;;;;;;;;5085316;28;20217;-55
2024/02/03 09:05:53;;;;;;;24.90;16.77;;;;;;;;;;5086273;28;20040;-57
2024/02/03 09:08:20;;;;;;;23.52;16.85;;;;;;;;;;5086128;28;20016;-59
2024/02/03 09:10:46;;;;;;;27.23;17.00;;;;;;;;;;5067255;28;20028;-59
2024/02/03 09:13:13;;;;;;;29.05;18.05;;;;;;;;;;5065768;28;20028;-56
2024/02/03 09:15:39;;;;;;;25.02;17.25;;;;;;;;;;5066215;28;20025;-57
2024/02/03 09:18:06;;;;;;;25.35;16.48;;;;;;;;;;5065800;28;20332;-61
2024/02/03 09:20:33;;;;;;;23.92;17.10;;;;;;;;;;5065867;28;20059;-56
2024/02/03 09:22:59;;;;;;;22.77;16.85;;;;;;;;;;5065646;28;20025;-60
2024/02/03 09:25:26;;;;;;;23.90;17.45;;;;;;;;;;5065716;28;20025;-60
2024/02/03 09:27:52;;;;;;;29.70;17.90;;;;;;;;;;5064775;28;20071;-60
2024/02/03 09:30:19;;;;;;;26.80;17.40;;;;;;;;;;5065592;28;20149;-57
2024/02/03 09:32:46;;;;;;;24.85;17.00;;;;;;;;;;5065582;28;20048;-58
2024/02/03 09:35:12;;;;;;;23.90;17.23;;;;;;;;;;5065573;28;20080;-60
2024/02/03 09:37:39;;;;;;;24.75;16.80;;;;;;;;;;5065539;28;20036;-57
2024/02/03 09:40:07;;;;;;;24.67;17.58;;;;;;;;;;5065492;28;20027;-58
2024/02/03 09:42:37;;;;;;;26.85;17.23;;;;;;;;;;5065213;28;20313;-58
2024/02/03 09:45:04;;;;;;;28.02;17.25;;;;;;;;;;5065090;28;20044;-57
2024/02/03 09:47:30;;;;;;;27.73;17.10;;;;;;;;;;5065287;28;20028;-55
2024/02/03 09:50:01;;;;;;;26.50;17.52;;;;;;;;;;5065040;28;20024;-60
2024/02/03 09:52:29;;;;;;;24.05;16.80;;;;;;;;;;5065038;28;20028;-59
2024/02/03 09:54:55;;;;;;;23.45;16.98;;;;;;;;;;5065206;28;20259;-59
2024/02/03 09:57:22;;;;;;;24.13;17.83;;;;;;;;;;5064782;28;20020;-58
2024/02/03 09:59:52;;;;;;;26.98;17.17;;;;;;;;;;5065138;28;20024;-60
2024/02/03 10:02:19;;;;;;;25.23;17.00;;;;;;;;;;5064857;28;20028;-59
2024/02/03 10:04:46;;;;;;;23.65;18.27;;;;;;;;;;5064627;28;20021;-57
2024/02/03 10:07:18;;;;;;;29.23;18.75;;;;;;;;;;5064885;28;20024;-58
2024/02/03 10:09:45;;;;;;;23.05;17.00;;;;;;;;;;5064792;28;20028;-59
2024/02/03 10:12:22;;;;;;;30.05;17.73;;;;;;;;;;5064530;28;20048;-61
2024/02/03 10:15:09;;;;;;;24.92;18.30;;;;;;;;;;5064735;28;20081;-60
2024/02/03 10:17:35;;;;;;;23.67;17.45;;;;;;;;;;5064454;28;20055;-56
2024/02/03 10:20:05;;;;;;;26.20;17.92;;;;;;;;;;5064859;28;20170;-56
2024/02/03 10:22:32;;;;;;;25.88;18.20;;;;;;;;;;5064749;28;20029;-57
2024/02/03 10:24:59;;;;;;;27.30;17.23;;;;;;;;;;5064379;28;20021;-58
2024/02/03 10:27:26;;;;;;;24.42;17.02;;;;;;;;;;5064586;28;20020;-57
2024/02/03 10:29:56;;;;;;;26.95;17.52;;;;;;;;;;5064498;28;20048;-60
2024/02/03 10:32:22;;;;;;;27.67;17.40;;;;;;;;;;5064315;28;20017;-58
2024/02/03 10:34:54;;;;;;;25.75;17.17;;;;;;;;;;5064299;28;20020;-58
2024/02/03 10:37:21;;;;;;;28.98;18.05;;;;;;;;;;5064108;28;20052;-59
2024/02/03 10:39:47;;;;;;;25.60;17.80;;;;;;;;;;5063521;28;20032;-58
2024/02/03 10:42:21;;;;;;;27.70;17.58;;;;;;;;;;5064094;28;20021;-62
2024/02/03 10:44:52;;;;;;;26.98;18.30;;;;;;;;;;5063986;28;20082;-60
2024/02/03 10:47:23;;;;;;;28.67;17.70;;;;;;;;;;5064222;28;20020;-57
2024/02/03 10:49:51;;;;;;;26.95;18.15;;;;;;;;;;5064069;28;20088;-58
2024/02/03 10:52:19;;;;;;;30.00;18.20;;;;;;;;;;5063828;28;20025;-58
2024/02/03 10:54:48;;;;;;;26.88;18.10;;;;;;;;;;5064031;28;20021;-59
2024/02/03 10:57:17;;;;;;;29.38;18.15;;;;;;;;;;5063992;28;20325;-56
2024/02/03 10:59:44;;;;;;;28.38;18.48;;;;;;;;;;5063877;28;20028;-56
2024/02/03 11:02:20;;;;;;;25.70;18.05;;;;;;;;;;5063866;28;20367;-56
2024/02/03 11:04:52;;;;;;;30.05;19.02;;;;;;;;;;5063838;28;20036;-62
2024/02/03 11:07:22;;;;;;;33.28;19.83;;;;;;;;;;5063971;28;20084;-58
2024/02/03 11:09:59;;;;;;;33.80;20.63;;;;;;;;;;5063975;28;20020;-59
2024/02/03 11:12:35;;;;;;;35.03;23.80;;;;;;;;;;5063723;28;20313;-58
2024/02/03 11:15:02;;;;;;;38.00;23.70;;;;;;;;;;5063922;28;20029;-59
2024/02/03 11:17:33;;;;;;;48.88;22.63;;;;;;;;;;5063523;28;20028;-64
2024/02/03 11:20:05;;;;;;;41.80;22.30;;;;;;;;;;5063837;28;20036;-62
2024/02/03 11:22:32;;;;;;;37.72;21.33;;;;;;;;;;5063339;28;20122;-64
2024/02/03 11:24:59;;;;;;;37.80;20.83;;;;;;;;;;5062886;28;20220;-64
2024/02/03 11:27:26;;;;;;;28.30;19.92;;;;;;;;;;5063743;28;20021;-61
2024/02/03 11:29:52;;;;;;;35.35;20.40;;;;;;;;;;5063783;28;20025;-62
2024/02/03 11:32:19;;;;;;;29.38;19.45;;;;;;;;;;5063503;28;20313;-59
2024/02/03 11:34:45;;;;;;;35.92;20.13;;;;;;;;;;5063565;28;20175;-59
2024/02/03 11:37:16;;;;;;;34.25;20.73;;;;;;;;;;5063125;28;20209;-60
2024/02/03 11:39:42;;;;;;;32.45;20.67;;;;;;;;;;5062217;28;20301;-57
2024/02/03 11:42:09;;;;;;;39.63;21.52;;;;;;;;;;5062897;28;20032;-62
2024/02/03 11:44:53;;;;;;;80.47;26.38;;;;;;;;;;5062805;28;20108;-60
2024/02/03 11:47:21;;;;;;;118.38;31.30;;;;;;;;;;5063313;28;20048;-62
2024/02/03 11:49:47;;;;;;;164.57;34.20;;;;;;;;;;5063462;28;20297;-60
2024/02/03 11:52:14;;;;;;;187.32;37.60;;;;;;;;;;5066540;28;20032;-61
2024/02/03 11:54:41;;;;;;;198.00;38.30;;;;;;;;;;5067507;28;20071;-58
2024/02/03 11:57:08;;;;;;;205.05;37.25;;;;;;;;;;5067386;28;20037;-58
2024/02/03 11:59:34;;;;;;;155.48;35.60;;;;;;;;;;5067085;28;20074;-62
2024/02/03 12:02:01;;;;;;;147.63;33.30;;;;;;;;;;5067224;28;20021;-60
2024/02/03 12:04:28;;;;;;;132.65;32.03;;;;;;;;;;5067250;28;20017;-59
2024/02/03 12:06:55;;;;;;;105.47;27.85;;;;;;;;;;5066895;28;20033;-61
2024/02/03 12:09:22;;;;;;;80.50;25.33;;;;;;;;;;5067294;28;20024;-61
2024/02/03 12:11:49;;;;;;;61.08;22.63;;;;;;;;;;5067125;28;20044;-58
2024/02/03 12:14:16;;;;;;;85.88;25.33;;;;;;;;;;5066798;28;20068;-63
2024/02/03 12:16:43;;;;;;;211.40;37.05;;;;;;;;;;5066980;28;20031;-65
2024/02/03 12:19:10;;;;;;;192.65;33.78;;;;;;;;;;5066874;28;20253;-61
2024/02/03 12:21:37;;;;;;;182.82;34.90;;;;;;;;;;5067177;28;20029;-60
2024/02/03 12:24:04;;;;;;;208.13;35.53;;;;;;;;;;5066773;28;20025;-58
2024/02/03 12:26:31;;;;;;;170.38;35.42;;;;;;;;;;5067175;28;20213;-60
2024/02/03 12:28:57;;;;;;;175.75;36.47;;;;;;;;;;5066549;28;20013;-60
2024/02/03 12:31:24;;;;;;;169.85;33.25;;;;;;;;;;5067243;28;20139;-59
2024/02/03 12:33:51;;;;;;;125.00;28.45;;;;;;;;;;5066675;28;20217;-58
2024/02/03 12:36:18;;;;;;;99.47;24.88;;;;;;;;;;5066899;28;20017;-59
2024/02/03 12:38:45;;;;;;;91.68;26.15;;;;;;;;;;5066573;28;20084;-59
2024/02/03 12:41:11;;;;;;;85.95;24.17;;;;;;;;;;5066877;28;20060;-57
2024/02/03 12:43:38;;;;;;;74.15;23.83;;;;;;;;;;5066478;28;20057;-62
2024/02/03 12:46:06;;;;;;;73.10;22.90;;;;;;;;;;5066298;28;20032;-59
2024/02/03 12:48:32;;;;;;;63.25;22.77;;;;;;;;;;5066434;28;20021;-56
2024/02/03 12:50:59;;;;;;;51.85;21.05;;;;;;;;;;5066566;28;20040;-59
2024/02/03 12:53:27;;;;;;;42.92;20.40;;;;;;;;;;5066173;28;20033;-59
2024/02/03 12:55:54;;;;;;;46.13;19.73;;;;;;;;;;5066557;28;20025;-59
2024/02/03 12:58:22;;;;;;;44.20;20.73;;;;;;;;;;5066228;28;20025;-59
2024/02/03 13:00:49;;;;;;;40.55;19.50;;;;;;;;;;5066376;28;20036;-65
2024/02/03 13:03:16;;;;;;;44.20;20.65;;;;;;;;;;5065017;28;20348;-58
2024/02/03 13:05:45;;;;;;;31.25;18.40;;;;;;;;;;5066146;28;20297;-62
2024/02/03 13:08:12;;;;;;;32.13;19.35;;;;;;;;;;5065904;28;20033;-59
2024/02/03 13:10:39;;;;;;;35.35;19.17;;;;;;;;;;5066238;28;20021;-57
2024/02/03 13:13:05;;;;;;;32.22;18.00;;;;;;;;;;5065786;28;20029;-58
2024/02/03 13:15:33;;;;;;;37.17;20.08;;;;;;;;;;5066098;28;20178;-59
2024/02/03 13:17:59;;;;;;;34.25;17.70;;;;;;;;;;5065873;28;20134;-59
2024/02/03 13:20:26;;;;;;;32.83;19.35;;;;;;;;;;5066019;28;20031;-59
2024/02/03 13:22:52;;;;;;;34.15;19.02;;;;;;;;;;5065647;28;20359;-58
2024/02/03 13:25:19;;;;;;;29.92;19.10;;;;;;;;;;5065660;28;20025;-60
2024/02/03 13:27:45;;;;;;;30.83;19.08;;;;;;;;;;5065475;28;20063;-59
2024/02/03 13:30:15;;;;;;;31.05;19.23;;;;;;;;;;5080714;28;20020;-61
2024/02/03 13:32:44;;;;;;;30.33;19.48;;;;;;;;;;5078529;28;20025;-59
2024/02/03 13:35:11;;;;;;;33.83;20.13;;;;;;;;;;5085611;28;20020;-64
2024/02/03 13:37:39;;;;;;;30.23;19.35;;;;;;;;;;5085440;28;20032;-63
2024/02/03 13:40:07;;;;;;;32.33;20.00;;;;;;;;;;5085524;28;20051;-62
2024/02/03 13:42:33;;;;;;;30.83;20.00;;;;;;;;;;5085367;28;20033;-58
2024/02/03 13:45:00;;;;;;;32.53;18.83;;;;;;;;;;5085225;28;20244;-62
2024/02/03 13:47:26;;;;;;;33.13;20.00;;;;;;;;;;5085224;28;20025;-63
2024/02/03 13:49:53;;;;;;;33.38;19.38;;;;;;;;;;5085253;28;20031;-63
2024/02/03 13:52:20;;;;;;;33.70;20.25;;;;;;;;;;5085056;28;20076;-62
2024/02/03 13:54:47;;;;;;;29.38;19.83;;;;;;;;;;5085339;28;20292;-59
2024/02/03 13:57:13;;;;;;;31.73;20.00;;;;;;;;;;5085344;28;20070;-63
2024/02/03 13:59:40;;;;;;;33.00;19.98;;;;;;;;;;5084951;28;20134;-58
2024/02/03 14:02:06;;;;;;;34.75;20.42;;;;;;;;;;5084633;28;20028;-60
2024/02/03 14:04:33;;;;;;;35.22;21.27;;;;;;;;;;5084833;28;20304;-64
2024/02/03 14:07:00;;;;;;;31.90;19.83;;;;;;;;;;5084686;28;20145;-64
2024/02/03 14:09:27;;;;;;;34.40;20.35;;;;;;;;;;5084923;28;20212;-66
2024/02/03 14:11:54;;;;;;;33.53;20.55;;;;;;;;;;5084805;28;20016;-62
2024/02/03 14:14:21;;;;;;;32.42;20.05;;;;;;;;;;5084350;28;20232;-62
2024/02/03 14:16:49;;;;;;;30.63;18.83;;;;;;;;;;5084678;28;20028;-62